Terminal Aerodrome Forecast
Issued by NWS Sterling, VA

Current Version | Previous Version | Text Only | Print | Product List | Glossary Off
Versions: 1 2 3 4 5 6 7 8 9 10 11 12 13 14 15 16 17 18 19 20 21 22 23 24 25

000
FTUS41 KLWX 282335
TAFIAD
TAF
KIAD 282335Z 2900/3006 28012G17KT P6SM SCT050
     FM290200 29008KT P6SM SCT050
     FM290600 29005KT P6SM SCT250
     FM291800 22006KT P6SM FEW140
     FM292300 18004KT P6SM BKN110=

USA.gov is the U.S. government's official web portal to all federal, state and local government web resources and services.